^^

NEARBY METAR REPORTS

KSQI - Sterling Rockfal, Illinois, USA
Distance from station: ESE 17mi, 27km
Updated: 06/24/2019 4:56pm
Nearby thunderstorm, Light rain, Mostly cloudy
Nearby thunderstorm, Light rain, Mostly cloudy
 Wind from WSW
Wind: WSW 10 mph , 17 km/h
Temperature: 64°F , 18°C
Dew Point: 63°F , 17°C
Humidity: 94%
Clouds: Mostly Cloudy
Visibility: 10 miles , 16 km
Cloud details: Few Clouds 3000 ft
Partly Cloudy 4100 ft
Mostly Cloudy 5500 ft
2019/06/24 21:56 KSQI 242156Z AUTO 25009KT 10SM VCTS -RA FEW030 SCT041 BKN055 18/17 RMK AO2 LTG DSNT N-SE TSB15RAB37 SLPNO P0003 T01830172 $
KCWI - Clinton Muni, Iowa, USA
Distance from station: W 17mi, 28km
Updated: 06/24/2019 4:56pm
Few Clouds
Few Clouds
 Wind from W
Wind: W 21 mph , 33 km/h, Gust: 25 mph , 41 km/h
Temperature: 72°F , 22°C
Dew Point: 64°F , 18°C
Humidity: 78%
Barometer: 29.67 inHg , 1004.7 hPa
Clouds: Few Clouds
Visibility: 10 miles , 16 km
Cloud details: Few Clouds 6500 ft
2019/06/24 21:56 KCWI 242156Z AUTO 27018G22KT 10SM FEW065 22/18 A2967 RMK AO2 TSE2058B00E14RAE22 SLP062 P0001 T02170178
KSFY - Savanna/Tritown, Illinois, USA
Distance from station: NNW 17mi, 28km
Updated: 06/24/2019 4:35pm
Overcast
Overcast
 Wind from WSW
Wind: WSW 10 mph , 17 km/h
Temperature: 64°F , 18°C
Dew Point: 61°F , 16°C
Humidity: 88%
Barometer: 29.65 inHg , 1004.1 hPa
Clouds: Overcast
Visibility: 10 miles , 16 km
Cloud details: Partly Cloudy 2900 ft
Mostly Cloudy 4500 ft
Overcast 11000 ft
2019/06/24 21:35 KSFY 242135Z AUTO 25009KT 10SM SCT029 BKN045 OVC110 18/16 A2965 RMK AO2 LTG DSNT E AND SE P0001
KDVN - Davenport/Quad C, Iowa, USA
Distance from station: WSW 34mi, 55km
Updated: 06/24/2019 4:52pm
Few Clouds
Few Clouds
 Wind from W
Wind: W 13 mph , 20 km/h
Temperature: 72°F , 22°C
Dew Point: 63°F , 17°C
Humidity: 73%
Barometer: 29.69 inHg , 1005.4 hPa
Clouds: Few Clouds
Visibility: 10 miles , 16 km
Cloud details: Few Clouds 6500 ft
2019/06/24 21:52 KDVN 242152Z AUTO 28011KT 10SM FEW065 22/17 A2969 RMK AO2 RAB2055E23 TSE04B10E25 SLP047 P0003 T02220172
KFEP - Freeport, Illinois, USA
Distance from station: NE 36mi, 58km
Updated: 06/24/2019 4:55pm

 Wind from WSW
Wind: WSW 9 mph , 15 km/h
Visibility: 7 miles , 11 km
2019/06/24 21:55 KFEP 242155Z AUTO 24008KT 7SM -VCTSRA SCT026 BKN095 OVC120 18/17 A2965 RMK AO2 LTG DSNT N THRU E P0008 T01760168
KMLI - Moline/Quad City, Illinois, USA
Distance from station: SW 38mi, 61km
Updated: 06/24/2019 4:52pm
Few Clouds
Few Clouds
 Wind from W
Wind: W 20 mph , 31 km/h, Gust: 31 mph , 50 km/h
Temperature: 75°F , 24°C
Dew Point: 61°F , 16°C
Humidity: 61%
Barometer: 29.67 inHg , 1004.7 hPa
Clouds: Few Clouds
Visibility: 10 miles , 16 km
Cloud details: Few Clouds 7000 ft
Few Clouds 8500 ft
2019/06/24 21:52 KMLI 242152Z 28017G27KT 10SM FEW070 FEW085 24/16 A2967 RMK AO2 PK WND 26030/2131 SLP043 T02440161
KRPJ - Rochelle/Koritz, Illinois, USA
Distance from station: E 46mi, 75km
Updated: 06/24/2019 4:55pm
Nearby thunderstorm, Mostly cloudy
Nearby thunderstorm, Mostly cloudy
 Wind from W
Wind: W 23 mph , 37 km/h, Gust: 35 mph , 56 km/h
Temperature: 73°F , 23°C
Dew Point: 64°F , 18°C
Humidity: 74%
Barometer: 29.64 inHg , 1003.7 hPa
Clouds: Mostly Cloudy
Visibility: 10 miles , 16 km
Cloud details: Partly Cloudy 3600 ft
Mostly Cloudy 6000 ft
Mostly Cloudy 9000 ft
2019/06/24 21:55 KRPJ 242155Z AUTO 26020G30KT 10SM VCTS SCT036 BKN060 BKN090 23/18 A2964 RMK AO2 LTG DSNT NW THRU NE T02300176
KRFD - Rockford, Illinois, USA
Distance from station: ENE 52mi, 84km
Updated: 06/24/2019 4:54pm
Light thunderstorm, Rain, Mostly cloudy
Light thunderstorm, Rain, Mostly cloudy
 Wind from W
Wind: W 20 mph , 31 km/h, Gust: 38 mph , 61 km/h
Temperature: 66°F , 19°C
Dew Point: 57°F , 14°C
Humidity: 73%
Barometer: 29.63 inHg , 1003.4 hPa
Clouds: Mostly Cloudy
Visibility: 4 miles , 6 km
Cloud details: Partly Cloudy 4100 ft
Partly Cloudy 12000 ft
Mostly Cloudy 25000 ft
2019/06/24 21:54 KRFD 242154Z 26017G33KT 4SM R01/4000VP6000FT -TSRA SCT041CB SCT120 BKN250 19/14 A2963 RMK AO2 PK WND 29038/2143 WSHFT 2132 LTG DSNT N AND NE AND SW PRESRR SLP031 OCNL LTGIC SW RAB47TSB40 TS SW MOV E P0002 T01940139 $
KVYS - Peru, Illinois, USA
Distance from station: SE 54mi, 86km
Updated: 06/24/2019 4:35pm
Partly Cloudy
Partly Cloudy
 Wind from WSW
Wind: WSW 18 mph , 30 km/h, Gust: 28 mph , 44 km/h
Temperature: 77°F , 25°C
Dew Point: 61°F , 16°C
Humidity: 57%
Barometer: 29.65 inHg , 1004.1 hPa
Clouds: Partly Cloudy
Visibility: 10 miles , 16 km
Cloud details: Partly Cloudy 3300 ft
Partly Cloudy 4100 ft
2019/06/24 21:35 KVYS 242135Z AUTO 24016G24KT 10SM SCT033 SCT041 25/16 A2965 RMK AO2 T02470158
KDBQ - Dubuque, Iowa, USA
Distance from station: NW 55mi, 88km
Updated: 06/24/2019 4:53pm
Partly Cloudy
Partly Cloudy
 Wind from W
Wind: W 17 mph , 28 km/h, Gust: 28 mph , 44 km/h
Temperature: 72°F , 22°C
Dew Point: 63°F , 17°C
Humidity: 73%
Barometer: 29.65 inHg , 1004.1 hPa
Clouds: Partly Cloudy
Visibility: 10 miles , 16 km
Cloud details: Few Clouds 4700 ft
Partly Cloudy 10000 ft
2019/06/24 21:53 KDBQ 242153Z 27015G24KT 10SM FEW047 SCT100 22/17 A2965 RMK AO2 PK WND 27026/2115 LTG DSNT N RAB16E43 SLP035 TS DSNT N AND NW MOV E OCNL LTGICCCCG P0002 T02170172 $